Hugo Giraldo

Recruteur en chef - Independiente Medellin
2 Sept 2027
Jeudi
Processus

Personnalité

Adaptabilité (19) Ambition (13) Controverse (15) Loyauté (10) Pression (5) Professionnalisme (7) Sportivité (4) Tempérament (15)

Profil

Style d'entraînement Démocratique
Diplôme Continental B
Détermination 9
Gestion des joueurs 6
Motivation 10
Discipline 11
Satisfaction professionnelle
100%
Fatigue
0%
Rôle Recruteur en chef
Salaire 96.9K p/s
Contrat 14.03.2028

Performance

Comportement Bon
Efficacité de l'entraînement
31%
Développement des joueurs
65%
Prévention des blessures
20%
Mise en place tactique
40%

Événements récents

A participé à une réunion de recrutement maintenant
A recommandé une cible de transfert maintenant
A recommandé une cible de transfert maintenant
A recommandé une cible de transfert maintenant
A recommandé une cible de transfert 7j
A recommandé une cible de transfert 7j
A recommandé une cible de transfert 7j
A participé à une réunion de recrutement 7j

Suivi en cours

273
Joueur Club Statut Capacité Confiance Observé Dernière observation Dernier vote
Diego Martínez Jaguares Actif 124 / 124 44% 2 / 2m 21.07.2027 -
Kevin Tamayo Leones Actif 119 / 120 79% 1 28.06.2027 Approuver
Kwadwo Baah Watford Actif 134 / 141 40% 2 26.06.2027 -
Marcus Edwards Burnley Actif 141 / 132 40% 2 26.06.2027 -
Guille Rosas Gijón Actif 147 / 141 40% 1 26.06.2027 -
Riley McGree Middlesbrough Actif 135 / 142 40% 2 22.06.2027 -
Mohamed-Ali Cho Hull City Actif 141 / 129 40% 2 22.06.2027 -
Andre Brooks Sheffield United Actif 133 / 132 40% 1 22.06.2027 -
Luis Vázquez Birmingham Actif 129 / 117 40% 1 15.06.2027 -
Nicolò Zaniolo Udinese Actif 144 / 155 40% 1 15.06.2027 -
Murphy Cooper Plymouth Argyle Actif 123 / 123 40% 1 08.06.2027 -
Federico Pereira Estudiantes Négociation 135 / 135 68% 1 01.06.2027 Approuver
Facundo Torres LOSC Lille Actif 134 / 134 67% 1 01.06.2027 Approuver
Bitello SC Freiburg Actif 135 / 135 68% 1 01.06.2027 Approuver
Kostantis Tzolakis Hull City Actif 149 / 142 40% 7 29.05.2027 -
Michele Cerofolini Bari Actif 122 / 132 40% 4 29.05.2027 -
Maduka Okoye Udinese Actif 144 / 154 40% 1 29.05.2027 -
Christian Walton Ipswich Town Actif 132 / 141 40% 4 28.05.2027 -
Jonathan Klinsmann Cesena Actif 122 / 113 40% 2 28.05.2027 -
Robin Roefs Sunderland Actif 140 / 154 40% 2 27.05.2027 -
Lucas Bruera Carabobo Actif 120 / 122 40% 1 27.05.2027 -
Arijanet Murić Sassuolo Actif 137 / 132 40% 3 26.05.2027 -
Balázs Tóth Blackburn Rovers Actif 127 / 117 40% 3 26.05.2027 -
Luis Ingolotti Atlético Tucumán Actif 124 / 125 40% 1 26.05.2027 -
Mauro Silveira Junior Actif 124 / 128 40% 1 25.05.2027 -
Bento Al-Nassr Actif 139 / 130 40% 5 24.05.2027 -
Lorenzo Palmisani Frosinone Actif 130 / 122 40% 4 24.05.2027 -
Caoimhin Kelleher Brentford Actif 156 / 151 40% 4 23.05.2027 -
Mads Hermansen West Ham United Actif 138 / 139 40% 3 23.05.2027 -
Diego Romero Universitario Actif 129 / 134 40% 1 23.05.2027 -
Tomáš Frühwald Bohemians 1905 Actif 109 / 116 40% 1 23.05.2027 -
Nikola Vasilj Al-Diriyah Actif 141 / 137 40% 2 20.05.2027 -
Jean America de Cali Actif 127 / 120 40% 1 20.05.2027 -
Simone Scuffet Pisa Actif 124 / 140 40% 3 18.05.2027 -
Daniel Iversen Preston Actif 123 / 134 40% 3 16.05.2027 -
Ezequiel Centurión River Plate Actif 128 / 121 40% 1 16.05.2027 -
Tomás Marchiori Vélez Actif 127 / 129 40% 2 15.05.2027 -
Edoardo Motta Lazio Actif 127 / 133 40% 1 15.05.2027 -
Justin Bijlow Genoa Actif 155 / 157 40% 3 13.05.2027 -
Facundo Cambeses Racing Club Actif 128 / 124 40% 1 12.05.2027 -
Grégoire Coudert Burnley Actif 131 / 117 40% 1 11.05.2027 -
Amine Adli Bournemouth Actif 145 / 156 40% 5 10.05.2027 Observer
Jacob Widell Zetterström Derby County Actif 134 / 124 40% 1 10.05.2027 -
Iván Arboleda Sarmiento Actif 127 / 121 40% 1 10.05.2027 -
Derensili Sanches Fernandes Huddersfield Town Actif 125 / 129 40% 6 06.05.2027 -
Hany Mukhtar Spezia Perdu 145 / 132 40% 2 06.05.2027 Plus d'infos
Welington Southampton Actif 132 / 115 40% 4 06.05.2027 -
Lewis Morgan SuperSport United Actif 128 / 124 40% 11 05.05.2027 -
Giorgi Chakvetadze Watford Actif 122 / 117 40% 2 05.05.2027 -
Hílder Arboleda Union Magdalena Actif 86 / 89 30% 1 / 1m 05.05.2027 -
Harry Wilson Leeds United Actif 139 / 130 40% 4 04.05.2027 -
David Turnbull Cardiff City Actif 122 / 133 40% 1 03.05.2027 -
Ryoya Morishita Blackburn Rovers Actif 132 / 117 40% 4 02.05.2027 -
Aaron Collins Milton Keynes Dons Actif 120 / 124 40% 1 02.05.2027 -
Morgan Whittaker Middlesbrough Actif 134 / 132 40% 1 02.05.2027 -
Kerem Aktürkoğlu Fenerbahce Actif 144 / 130 40% 3 30.04.2027 -
Filippo Manfrin Arzignano Actif 106 / 99 40% 2 30.04.2027 -
Davide Mastrantonio Latina Actif 91 / 92 40% 1 30.04.2027 -
Oleksandr Saputin Poltava Actif 113 / 128 40% 1 30.04.2027 -
Kevin Fulham Actif 145 / 162 40% 3 28.04.2027 -
Tom Fellows Southampton Actif 130 / 134 40% 6 28.04.2027 -
Mikkel Damsgaard Brentford Actif 147 / 132 40% 3 28.04.2027 -
Giacomo Raspadori Atalanta Actif 153 / 138 40% 2 28.04.2027 -
Egil Selvik Watford Actif 126 / 124 40% 1 28.04.2027 -
Isaac Price West Bromwich Albion Actif 125 / 141 40% 1 28.04.2027 -
Ali Ahmed Norwich City Actif 117 / 130 40% 3 23.04.2027 -
Jack McGlynn Stoke City Actif 135 / 131 40% 1 23.04.2027 -
Marco Asensio Fenerbahce Actif 165 / 168 40% 5 22.04.2027 -
Carlos Alcaraz Everton Actif 148 / 143 40% 2 22.04.2027 -
Felix Kyei Medeama Actif 89 / 84 40% 2 22.04.2027 -
Valerio Boffelli Cavese Actif 98 / 107 40% 2 22.04.2027 -
Facundo Vila Estudiantes Actif 101 / 99 40% 1 21.04.2027 -
Assane Diao Lazio Actif 139 / 146 40% 2 19.04.2027 -
Scott Twine Bristol City Actif 132 / 114 40% 2 18.04.2027 -
Jack Rudoni Coventry City Actif 128 / 130 40% 1 18.04.2027 -
Isaiah Jones Luton Town Actif 127 / 130 40% 4 17.04.2027 -
Nordi Mukiele Sunderland Actif 152 / 140 40% 1 16.04.2027 -
Ianis Hagi Alanyaspor Actif 125 / 113 40% 1 15.04.2027 -
Zian Flemming Ipswich Town Actif 130 / 138 40% 1 14.04.2027 -
James Trafford Leeds United Actif 150 / 145 40% 2 12.04.2027 -
Kiernan Dewsbury-Hall Everton Actif 144 / 151 40% 1 12.04.2027 -
Alexander Nübel Besiktas Actif 141 / 144 40% 1 12.04.2027 -
Ortwin De Wolf KV Mechelen Actif 122 / 106 40% 1 11.04.2027 -
Deniz Ertaş Konyaspor Actif 116 / 135 40% 1 11.04.2027 -
Adrien Truffert Bournemouth Actif 158 / 140 40% 2 10.04.2027 -
Mats Wieffer Brighton Actif 156 / 161 40% 1 08.04.2027 -
Leroy Sané Galatasaray Actif 160 / 161 40% 4 04.04.2027 -
Sorba Thomas Stoke City Actif 140 / 120 40% 3 03.04.2027 -
Carlos Vicente Birmingham Actif 139 / 139 40% 3 02.04.2027 -
Finn Azaz Southampton Actif 131 / 134 40% 2 01.04.2027 -
Léo Scienza Southampton Actif 133 / 151 40% 2 31.03.2027 -
Kwame Poku Queens Park Rangers Actif 120 / 118 40% 3 31.03.2027 -
Wladimiro Falcone Lecce Actif 142 / 131 40% 4 31.03.2027 -
Dean Henderson Crystal Palace Actif 144 / 138 40% 1 31.03.2027 -
Nikita Haikin Standard Liege Actif 132 / 142 40% 1 30.03.2027 -
Razvan Balasa Crvena Zvezda Actif 156 / 145 40% 5 28.03.2027 -
Adam Wharton Crystal Palace Actif 159 / 153 40% 2 27.03.2027 -
Nicolò Cambiaghi Bologna Actif 144 / 134 40% 1 27.03.2027 -
David Brooks Bournemouth Actif 142 / 138 40% 2 25.03.2027 -
Georges-Kévin Nkoudou Al-Diriyah Actif 128 / 130 40% 1 25.03.2027 -
Ryan Sessegnon Fulham Actif 141 / 148 40% 1 24.03.2027 -
Manor Solomon West Ham United Actif 139 / 150 40% 1 24.03.2027 -
Stanley Mills Oxford United Actif 116 / 129 40% 2 21.03.2027 -
Félix Lemaréchal Club Brugge Actif 141 / 143 40% 5 21.03.2027 -
Georginio Rutter Brighton Actif 142 / 135 40% 4 20.03.2027 -
Marko Ilić Westerlo Actif 122 / 129 40% 2 19.03.2027 -
Max O'Leary West Bromwich Albion Actif 122 / 138 40% 1 19.03.2027 -
Othmane Maamma Watford Actif 127 / 142 40% 3 18.03.2027 -
Kyrylo Fesiun Shakhtar Actif 116 / 137 40% 2 17.03.2027 -
Alex Meret Napoli Actif 162 / 165 40% 1 16.03.2027 -
Santiago Silva CFR Cluj Actif 117 / 119 40% 1 16.03.2027 -
Yusuke Matsuo Esteghlal Actif 121 / 111 40% 4 13.03.2027 -
Borja Sainz Fiorentina Actif 155 / 141 40% 3 13.03.2027 -
Eduardo Armenta Ufa Actif 99 / 91 40% 1 12.03.2027 -
Radek Vítek Middlesbrough Actif 129 / 131 40% 2 09.03.2027 -
Jamie Cumming Oxford United Actif 132 / 113 40% 1 08.03.2027 -
Leon Bailey Olympiacos Actif 151 / 129 40% 4 05.03.2027 -
Max Bird Birmingham Actif 127 / 118 40% 1 04.03.2027 -
Jan Koutný Sigma Olomouc Actif 112 / 116 40% 1 02.03.2027 -
Fedor Lapoukhov CSKA Sofia Actif 124 / 130 40% 1 02.03.2027 -
Mduduzi Shabalala Kaizer Chiefs Actif 116 / 100 40% 2 25.02.2027 -
Adriano Bertaccini Anderlecht Actif 123 / 108 40% 1 25.02.2027 -
Juan David Guillén Real Santander Actif 94 / 99 52% 1 / 1m 24.02.2027 -
Marquinhos Spartak Moscow Actif 135 / 143 40% 6 23.02.2027 -
Matt O'Riley Brighton Actif 152 / 156 40% 2 22.02.2027 -
Marcelo Allende Mamelodi Sundowns Actif 128 / 130 40% 6 16.02.2027 -
Tyrese Campbell Sheffield United Actif 136 / 124 40% 1 16.02.2027 -
Bertrand Traoré Sunderland Actif 136 / 136 40% 2 14.02.2027 -
Beau Reus Waasland-Beveren Actif 133 / 128 40% 1 14.02.2027 -
Óscar Mingueza Crystal Palace Actif 147 / 158 40% 1 11.02.2027 -
Zack Steffen Spartak Moscow Actif 126 / 128 40% 1 10.02.2027 -
Maílson Al-Taawoun Actif 133 / 114 40% 1 10.02.2027 -
Nahuel Ulariaga Hapoel Beer Sheva Actif 125 / 109 40% 3 06.02.2027 -
Tshepang Moremi Orlando Pirates Actif 116 / 124 40% 3 06.02.2027 -
Oston O'runov Persepolis Actif 127 / 132 40% 1 06.02.2027 -
Jhon Jhon Zenit Actif 129 / 137 40% 1 04.02.2027 -
Nicolas Schmid Portsmouth Actif 129 / 136 40% 1 04.02.2027 -
Michael Cooper Sheffield United Actif 130 / 125 40% 1 02.02.2027 -
Hélio Varela Maccabi Tel Aviv Actif 121 / 114 40% 1 02.02.2027 -
Callum Hudson-Odoi Nottingham Forest Actif 156 / 149 40% 1 24.01.2027 -
Ilias Sebaoui Sint-Truiden Actif 127 / 140 40% 1 24.01.2027 -
Oswin Appollis Orlando Pirates Actif 119 / 113 40% 1 22.01.2027 -
Filip Marschall Stevenage Actif 118 / 120 40% 1 22.01.2027 -
Francesco D'Alterio Ternana Actif 111 / 123 40% 1 22.01.2027 -
Mykyta Turbaievskyi Zorya Actif 109 / 125 40% 1 22.01.2027 -
Cesare Galeotti Trapani Actif 105 / 122 40% 1 21.01.2027 -
Tomáš Ladra Viktoria Plzen Actif 118 / 111 40% 1 19.01.2027 -
Kenny Tete Fulham Actif 150 / 130 40% 1 19.01.2027 -
Rubén Duarte Legia Actif 130 / 129 40% 2 16.01.2027 -
Louie Barry Sheffield Wednesday Actif 115 / 116 40% 1 16.01.2027 -
Sayfallah Ltaief Cracovia Actif 121 / 120 40% 1 16.01.2027 -
Ilias Chair Queens Park Rangers Actif 125 / 129 40% 1 14.01.2027 -
Christian Nørgaard Everton Actif 139 / 137 40% 1 10.01.2027 -
Mauro Arambarri River Plate Actif 156 / 154 40% 1 06.01.2027 -
Heorhii Yermakov Metalist Actif 109 / 131 40% 1 05.01.2027 -
Juan Pablo Gallego Dibba Actif 108 / 104 40% 2 03.01.2027 -
Tiago Palacios Estudiantes Actif 125 / 129 40% 2 02.01.2027 -
Alan Lescano Argentinos Juniors Actif 133 / 136 40% 2 01.01.2027 -
Juergen Elitím Bohemians 1905 Actif 115 / 125 40% 3 01.01.2027 -
Christian Krasnodar Actif 128 / 133 40% 1 30.12.2026 -
Víctor Ríos Atlas Actif 111 / 109 40% 1 26.12.2026 -
Aarón Molinas Defensa y Justicia Actif 129 / 135 40% 2 25.12.2026 -
Joaquín Gho Argentinos Juniors Actif 126 / 133 40% 3 25.12.2026 -
Aimé Omgba KAA Gent Actif 131 / 127 40% 1 25.12.2026 -
Cian Ashford Cardiff City Actif 120 / 114 40% 1 23.12.2026 -
Ramiro Ruiz Rodríguez Atlético Tucumán Actif 117 / 120 40% 10 22.12.2026 -
Jack Diamond Stockport County Actif 127 / 106 40% 1 21.12.2026 -
Williams Manyama SuperSport United Actif 119 / 114 40% 1 02.12.2026 -
Rodrigo Bogarín Barracas Central Actif 116 / 111 40% 2 28.11.2026 -
Jhonatan Candia Barracas Central Actif 121 / 114 40% 4 28.11.2026 -
Luciano Gondou CSKA Moscow Actif 139 / 127 40% 1 28.11.2026 -
Lorent Tolaj Plymouth Argyle Actif 112 / 121 40% 1 28.11.2026 -
Matías Zaracho Racing Club Actif 121 / 135 40% 1 28.11.2026 -
Marcelino Moreno Lanús Actif 129 / 135 40% 1 27.11.2026 -
Felipe Peña Biafore Lanús Actif 122 / 135 40% 1 27.11.2026 -
Gustavo Del Prete San Lorenzo Actif 117 / 126 40% 3 26.11.2026 -
Ammar Ramadan DAC Dunajska Streda Actif 128 / 133 40% 1 26.11.2026 -
Moussa Dembélé CR Belouizdad Actif 137 / 120 40% 1 26.11.2026 Plus d'infos
Bamba Dieng Crvena Zvezda Actif 137 / 116 40% 1 23.11.2026 -
Manfred Ugalde Spartak Moscow Actif 138 / 122 40% 1 23.11.2026 -
Edwuin Cetré Estudiantes Actif 123 / 126 40% 1 22.11.2026 -
Diego Rossi Monterrey Actif 140 / 143 40% 10 21.11.2026 Observer
Alexis Cuello San Lorenzo Actif 122 / 131 40% 3 19.11.2026 -
Efraín Álvarez Guadalajara Actif 133 / 137 40% 4 18.11.2026 -
Antony Alonso Deportivo Riestra Actif 126 / 130 40% 3 17.11.2026 -
Mourad Tijuana Actif 123 / 114 40% 3 16.11.2026 -
Francisco González Metilli Belgrano Actif 123 / 118 40% 2 16.11.2026 -
Adonis Preciado Tijuana Actif 123 / 116 40% 1 16.11.2026 -
Ozziel Herrera Tigres Actif 129 / 123 40% 6 14.11.2026 -
Tomás González Piast Actif 121 / 114 40% 1 14.11.2026 -
Brian Rodríguez Club America Actif 124 / 130 40% 1 13.11.2026 -
Alejandro Zendejas Club America Actif 136 / 133 40% 2 10.11.2026 -
Jordi Cortizo Leon Actif 123 / 123 40% 2 10.11.2026 -
Jesús Ricardo Angulo Toluca Actif 134 / 134 40% 1 10.11.2026 -
Alejandro Melo Cibalia Actif 119 / 119 40% 1 10.11.2026 -
Nicolás Cordero Aldosivi Actif 118 / 111 40% 2 09.11.2026 -
Ricardo Marín Guadalajara Actif 121 / 117 40% 4 07.11.2026 -
Matko Miljevic Racing Club Actif 123 / 137 40% 2 07.11.2026 -
Carlos Rodríguez Cruz Azul Actif 131 / 133 40% 1 07.11.2026 -
Tomás Conechny Racing Club Actif 129 / 132 40% 2 05.11.2026 -
Yousef Salech Cardiff City Actif 116 / 117 40% 1 05.11.2026 -
Nicolás Castro Toluca Actif 125 / 134 40% 1 04.11.2026 -
Adalberto Carrasquilla Pumas UNAM Actif 129 / 133 40% 2 03.11.2026 -
Ezequiel Bullaude Santos Laguna Actif 125 / 128 40% 1 03.11.2026 -
Santiago Rodríguez Gimnasia y Esgrima Actif 124 / 122 40% 2 01.11.2026 -
Ulises Sánchez Gimnasia y Esgrima Actif 129 / 131 40% 1 01.11.2026 -
Orbelín Pineda Monterrey Actif 145 / 138 40% 1 01.11.2026 -
Rodrigo Echeverría Leon Actif 128 / 133 40% 1 30.10.2026 -
Adnan Courtois KV Oostende Actif 137 / 120 40% 2 28.10.2026 -
Enzo Copetti Rosario Central Actif 128 / 124 40% 1 27.10.2026 -
Agustín Módica Gimnasia y Esgrima Actif 118 / 129 40% 3 25.10.2026 -
Marcelo Estigarribia Unión de Santa Fe Actif 121 / 125 40% 3 24.10.2026 -
Luca Martínez Dupuy Godoy Cruz Actif 119 / 119 40% 1 23.10.2026 -
Bénie Traoré New York City Actif 127 / 116 40% 4 22.10.2026 -
Santiago Montiel Independiente Actif 128 / 120 40% 3 22.10.2026 -
Luís Esteves Atlas Actif 125 / 121 40% 1 22.10.2026 -
Emanuel Coronel Rosario Central Actif 130 / 134 40% 1 22.10.2026 -
Brian Gutiérrez Guadalajara Actif 133 / 132 40% 1 22.10.2026 -
Gonzalo Ríos Independiente Rivadavia Actif 115 / 128 40% 1 15.10.2026 -
Jaminton Campaz Rosario Central Actif 131 / 130 40% 1 13.10.2026 -
Mauro Valiente Estudiantes Actif 108 / 107 40% 1 12.10.2026 -
Tomás Molina Argentinos Juniors Actif 129 / 120 40% 2 10.10.2026 -
Martín Ortega Newell's Old Boys Actif 122 / 113 40% 1 10.10.2026 -
Juan Rocca Gimnasia y Tiro Actif 106 / 104 40% 1 10.10.2026 -
David Barbona Defensa y Justicia Actif 120 / 113 40% 1 10.10.2026 -
Ismael Díaz Leon Actif 127 / 119 40% 4 09.10.2026 -
Rodrigo González Mitre Actif 110 / 109 40% 1 08.10.2026 -
Alexander Díaz Deportivo Riestra Actif 123 / 119 40% 1 02.10.2026 -
Ignacio Ramírez Newell's Old Boys Actif 119 / 125 40% 1 01.10.2026 -
Gabriel Jesus Barcelona Actif 150 / 157 40% 3 29.09.2026 -
Leandro Suhr Boston River Actif 121 / 118 40% 1 29.09.2026 -
Luciano Cosentino Wanderers Actif 117 / 112 40% 4 27.09.2026 -
Juninho Pumas UNAM Actif 129 / 137 40% 4 26.09.2026 -
Hugo Cuypers Monterrey Actif 131 / 123 40% 4 23.09.2026 -
Dejan Joveljić Seattle Sounders Actif 124 / 134 40% 1 23.09.2026 -
Diego Gaitán Maipú Actif 113 / 105 40% 1 23.09.2026 -
Leandro Lozano Boca Juniors Actif 127 / 129 40% 1 23.09.2026 -
Alejo Cruz Juventud Actif 124 / 127 40% 1 21.09.2026 -
Siro Rosané Estudiantes Actif 117 / 121 40% 1 19.09.2026 -
Nazareno Colombo Racing Club Actif 124 / 130 40% 1 19.09.2026 -
Tomás Escalante Plaza Colonia Actif 122 / 118 40% 1 19.09.2026 -
Facundo Batista Penarol Actif 117 / 117 40% 1 17.09.2026 -
Agustín Paz Progreso Actif 112 / 115 40% 1 17.09.2026 -
Wessam Abou Ali Columbus Crew Actif 131 / 126 40% 1 17.09.2026 -
Duncan McGuire Houston Dynamo Actif 130 / 129 40% 4 15.09.2026 -
Josh Sargent Toronto FC Actif 129 / 134 40% 2 13.09.2026 -
Louis Munteanu DC United Actif 130 / 119 40% 2 12.09.2026 -
Manuel Ospina Cortulua Actif 120 / 122 40% 1 09.09.2026 -
Kévin Denkey FC Cincinnati Actif 128 / 136 40% 2 06.09.2026 -
Jordan Morris Seattle Sounders Actif 125 / 133 40% 1 04.09.2026 -
Cheikh Sabaly Vancouver Whitecaps Actif 118 / 127 40% 1 03.09.2026 -
Breel Embolo Atlanta United FC Actif 134 / 144 40% 1 03.09.2026 -
Theo Corbeanu Toronto FC Actif 118 / 117 40% 1 28.08.2026 -
Jorge Rivaldo Tigres Actif 117 / 120 30% 1 / 1m 26.08.2026 -
Marcus Ingvartsen San Diego Football Club Actif 128 / 127 40% 2 23.08.2026 -
Federico Girotti Alianza Lima Actif 122 / 114 40% 3 19.08.2026 -
Jesus Ferreira Seattle Sounders Actif 124 / 129 40% 1 15.08.2026 -
Harold Santiago Mosquera Cerro Porteno Actif 121 / 123 40% 1 14.08.2026 -
Juan Diego Jaramillo Depor Actif 102 / 102 30% 1 / 1m 12.08.2026 -
Juan Diego Mendoza Real Santander Actif 80 / 85 30% 1 / 1m 12.08.2026 -
João Klauss LA Galaxy Actif 120 / 132 40% 1 09.08.2026 -
Rodrigo Aguirre Tigres Actif 125 / 129 40% 1 07.08.2026 -
Lucas Souto Defensa y Justicia Actif 124 / 115 40% 1 07.08.2026 -
Ricardo Chávez Monterrey Actif 132 / 124 40% 1 07.08.2026 -
Federico Ricca Belgrano Actif 123 / 127 40% 1 07.08.2026 -
Matías Espinoza Libertad Actif 120 / 114 40% 1 06.08.2026 -
Salvador Reyes Leon Actif 122 / 121 40% 1 06.08.2026 -
Sam Surridge Nashville SC Actif 128 / 132 40% 1 05.08.2026 -
Álvaro Angulo Pumas UNAM Actif 125 / 115 40% 1 03.08.2026 -
Jhohan Romaña Leon Actif 127 / 127 40% 1 03.08.2026 -
Alejo Miro Patronato Actif 93 / 92 40% 1 02.08.2026 -
Urko Izeta Cádiz Actif 136 / 134 40% 1 01.08.2026 -
Eryc Castillo Alianza Lima Actif 114 / 120 40% 1 01.08.2026 -